Time;durP1;ratioP1;P1;durP2;ratioP2;P2;SDS_P1;SDS_P2;PMS_P1;PMS_P2;Temp;Humidity;BMP_temperature;BMP_pressure;BME280_temperature;BME280_humidity;BME280_pressure;Samples;Min_cycle;Max_cycle;Signal;HPM_P1;HPM_P2
2023/09/22 00:01:01;;;;;;;10.35;5.47;;;;;;;;;;5054502;28;20050;-48
2023/09/22 00:03:30;;;;;;;9.07;4.65;;;;;;;;;;5057519;28;20048;-54
2023/09/22 00:05:58;;;;;;;10.65;5.15;;;;;;;;;;5052120;28;20431;-51
2023/09/22 00:08:26;;;;;;;14.55;6.15;;;;;;;;;;5062194;28;20066;-50
2023/09/22 00:10:54;;;;;;;12.40;5.97;;;;;;;;;;5046630;28;20559;-48
2023/09/22 00:13:22;;;;;;;11.30;5.20;;;;;;;;;;5056753;28;20043;-48
2023/09/22 00:15:52;;;;;;;10.32;5.38;;;;;;;;;;5053245;28;20040;-49
2023/09/22 00:18:19;;;;;;;10.95;4.88;;;;;;;;;;5065729;28;20105;-49
2023/09/22 00:20:47;;;;;;;10.93;4.57;;;;;;;;;;5051250;28;20044;-51
2023/09/22 00:23:15;;;;;;;9.97;4.83;;;;;;;;;;5062247;28;20101;-49
2023/09/22 00:25:43;;;;;;;8.93;4.90;;;;;;;;;;5049975;28;20608;-52
2023/09/22 00:28:13;;;;;;;9.82;4.97;;;;;;;;;;5066503;28;20036;-54
2023/09/22 00:30:42;;;;;;;9.95;5.10;;;;;;;;;;5054433;28;20488;-49
2023/09/22 00:33:14;;;;;;;10.57;4.57;;;;;;;;;;5064320;28;20044;-50
2023/09/22 00:35:42;;;;;;;10.93;4.50;;;;;;;;;;5064210;28;20066;-50
2023/09/22 00:38:10;;;;;;;9.73;4.60;;;;;;;;;;5052457;28;20036;-48
2023/09/22 00:40:38;;;;;;;12.10;4.88;;;;;;;;;;5062905;28;20044;-49
2023/09/22 00:43:09;;;;;;;12.23;4.65;;;;;;;;;;5059255;28;20411;-51
2023/09/22 00:45:41;;;;;;;11.07;4.53;;;;;;;;;;5051454;28;20068;-52
2023/09/22 00:48:09;;;;;;;11.33;4.83;;;;;;;;;;5056669;28;20039;-49
2023/09/22 00:50:38;;;;;;;17.92;5.68;;;;;;;;;;5063103;28;20051;-53
2023/09/22 00:53:06;;;;;;;11.10;4.60;;;;;;;;;;5065489;28;20037;-48
2023/09/22 00:55:36;;;;;;;9.35;4.65;;;;;;;;;;5081408;27;20409;-49
2023/09/22 00:58:04;;;;;;;10.00;4.45;;;;;;;;;;5056643;28;20360;-48
2023/09/22 01:00:32;;;;;;;8.63;4.10;;;;;;;;;;5063778;28;20055;-52
2023/09/22 01:03:01;;;;;;;10.13;4.15;;;;;;;;;;5053961;28;20067;-49
2023/09/22 01:05:32;;;;;;;8.07;4.50;;;;;;;;;;5056067;28;20048;-50
2023/09/22 01:08:02;;;;;;;9.60;4.28;;;;;;;;;;5053686;28;20051;-52
2023/09/22 01:10:37;;;;;;;12.48;4.60;;;;;;;;;;5064411;28;20044;-50
2023/09/22 01:13:07;;;;;;;9.90;4.07;;;;;;;;;;5066646;28;20044;-50
2023/09/22 01:15:36;;;;;;;8.77;4.25;;;;;;;;;;5054183;28;20048;-51
2023/09/22 01:18:04;;;;;;;9.40;4.00;;;;;;;;;;5069720;28;20106;-50
2023/09/22 01:20:33;;;;;;;11.70;4.22;;;;;;;;;;5049890;28;20101;-52
2023/09/22 01:23:05;;;;;;;8.25;3.67;;;;;;;;;;5057952;28;20046;-51
2023/09/22 01:25:32;;;;;;;10.90;3.90;;;;;;;;;;5047686;28;20047;-53
2023/09/22 01:28:00;;;;;;;11.63;4.45;;;;;;;;;;5065309;28;20104;-49
2023/09/22 01:30:29;;;;;;;11.57;3.63;;;;;;;;;;5048064;28;20101;-51
2023/09/22 01:33:02;;;;;;;9.48;3.72;;;;;;;;;;5062398;28;20051;-47
2023/09/22 01:35:32;;;;;;;9.13;3.97;;;;;;;;;;5055108;28;20097;-48
2023/09/22 01:38:04;;;;;;;9.17;3.60;;;;;;;;;;5054055;28;20517;-51
2023/09/22 01:40:33;;;;;;;10.48;4.18;;;;;;;;;;5062369;28;20528;-51
2023/09/22 01:43:01;;;;;;;10.65;4.28;;;;;;;;;;5062087;28;20032;-53
2023/09/22 01:45:28;;;;;;;9.27;4.25;;;;;;;;;;5073503;27;20040;-50
2023/09/22 01:47:57;;;;;;;10.55;4.07;;;;;;;;;;5061342;28;20040;-48
2023/09/22 01:50:25;;;;;;;7.53;3.57;;;;;;;;;;5060623;28;20037;-52
2023/09/22 01:52:53;;;;;;;10.20;3.50;;;;;;;;;;5060961;28;20052;-50
2023/09/22 01:55:22;;;;;;;9.25;3.88;;;;;;;;;;5041925;28;20165;-48
2023/09/22 01:57:51;;;;;;;8.45;3.88;;;;;;;;;;5063675;28;20047;-50
2023/09/22 02:00:19;;;;;;;9.43;3.70;;;;;;;;;;5052025;28;20047;-48
2023/09/22 02:02:47;;;;;;;9.87;3.87;;;;;;;;;;5058560;28;20501;-49
2023/09/22 02:05:15;;;;;;;12.30;4.72;;;;;;;;;;5058223;28;20048;-48
2023/09/22 02:07:44;;;;;;;9.68;4.57;;;;;;;;;;5045824;28;20048;-50
2023/09/22 02:10:13;;;;;;;10.02;4.43;;;;;;;;;;5061961;28;20048;-48
2023/09/22 02:12:42;;;;;;;9.75;4.38;;;;;;;;;;5054866;28;20040;-50
2023/09/22 02:15:12;;;;;;;8.77;3.97;;;;;;;;;;5055184;28;20040;-48
2023/09/22 02:17:41;;;;;;;11.23;3.70;;;;;;;;;;5047337;28;20040;-52
2023/09/22 02:20:17;;;;;;;10.85;4.03;;;;;;;;;;5063390;28;20171;-53
2023/09/22 02:22:47;;;;;;;9.18;3.72;;;;;;;;;;5051793;28;20025;-52
2023/09/22 02:25:15;;;;;;;10.85;3.92;;;;;;;;;;5058417;28;20790;-50
2023/09/22 02:27:43;;;;;;;9.23;3.70;;;;;;;;;;5057832;28;20486;-53
2023/09/22 02:30:14;;;;;;;8.82;3.70;;;;;;;;;;5055402;28;20060;-48
2023/09/22 02:32:44;;;;;;;8.68;3.70;;;;;;;;;;5055004;28;20039;-54
2023/09/22 02:35:13;;;;;;;8.20;3.13;;;;;;;;;;5048341;28;20131;-48
2023/09/22 02:37:41;;;;;;;8.18;3.40;;;;;;;;;;5062505;28;20048;-52
2023/09/22 02:40:12;;;;;;;8.33;2.80;;;;;;;;;;5048031;28;20032;-50
2023/09/22 02:42:41;;;;;;;10.23;3.38;;;;;;;;;;5038067;28;20048;-49
2023/09/22 02:45:10;;;;;;;7.43;3.17;;;;;;;;;;5055937;28;20360;-51
2023/09/22 02:47:40;;;;;;;10.63;3.40;;;;;;;;;;5051024;28;20089;-50
2023/09/22 02:50:10;;;;;;;8.48;3.33;;;;;;;;;;5052658;28;20036;-54
2023/09/22 02:52:39;;;;;;;8.70;3.30;;;;;;;;;;5062773;28;20057;-49
2023/09/22 02:55:08;;;;;;;9.52;4.25;;;;;;;;;;5049185;28;21232;-52
2023/09/22 02:57:36;;;;;;;11.07;3.97;;;;;;;;;;5065593;28;20502;-48
2023/09/22 03:00:11;;;;;;;7.47;3.20;;;;;;;;;;5015200;28;20379;-48
2023/09/22 03:02:41;;;;;;;11.35;3.30;;;;;;;;;;5051796;28;20036;-53
2023/09/22 03:05:09;;;;;;;7.10;2.90;;;;;;;;;;5055867;28;20055;-48
2023/09/22 03:07:37;;;;;;;8.82;2.97;;;;;;;;;;5020771;28;20028;-50
2023/09/22 03:10:06;;;;;;;8.35;2.88;;;;;;;;;;5045014;28;20090;-50
2023/09/22 03:12:35;;;;;;;8.93;3.40;;;;;;;;;;5052979;28;20040;-49
2023/09/22 03:15:03;;;;;;;7.72;3.53;;;;;;;;;;5059724;28;20040;-49
2023/09/22 03:17:31;;;;;;;9.57;2.83;;;;;;;;;;5054796;28;20046;-51
2023/09/22 03:20:19;;;;;;;7.56;2.86;;;;;;;;;;4996821;27;10001156;-48
2023/09/22 03:22:47;;;;;;;7.82;3.63;;;;;;;;;;5052547;28;20237;-53
2023/09/22 03:25:16;;;;;;;7.18;3.30;;;;;;;;;;5049927;28;20040;-50
2023/09/22 03:27:44;;;;;;;7.78;3.45;;;;;;;;;;5060699;28;20047;-54
2023/09/22 03:30:12;;;;;;;7.20;3.13;;;;;;;;;;5050045;28;20040;-50
2023/09/22 03:32:40;;;;;;;7.83;2.83;;;;;;;;;;5068037;28;20051;-47
2023/09/22 03:35:13;;;;;;;8.73;3.92;;;;;;;;;;5059923;28;20681;-55
2023/09/22 03:37:44;;;;;;;10.38;4.00;;;;;;;;;;5024708;28;20044;-53
2023/09/22 03:40:14;;;;;;;10.40;4.03;;;;;;;;;;5056860;28;20691;-47
2023/09/22 03:42:44;;;;;;;15.20;4.23;;;;;;;;;;4697688;28;10000274;-51
2023/09/22 03:45:13;;;;;;;18.58;4.20;;;;;;;;;;5060299;28;20051;-51
2023/09/22 03:47:41;;;;;;;9.07;4.20;;;;;;;;;;5060450;28;20985;-53
2023/09/22 03:50:10;;;;;;;9.50;3.50;;;;;;;;;;5054354;28;20489;-50
2023/09/22 03:52:38;;;;;;;8.02;2.78;;;;;;;;;;5062184;28;20093;-48
2023/09/22 03:55:08;;;;;;;7.88;2.97;;;;;;;;;;5054887;28;20044;-52
2023/09/22 03:57:36;;;;;;;7.35;2.78;;;;;;;;;;5042813;28;20402;-51
2023/09/22 04:00:16;;;;;;;9.50;3.27;;;;;;;;;;5070750;28;20040;-51
2023/09/22 04:02:46;;;;;;;7.05;2.63;;;;;;;;;;5065881;28;20478;-50
2023/09/22 04:05:15;;;;;;;8.25;3.17;;;;;;;;;;5049874;28;20036;-48
2023/09/22 04:07:43;;;;;;;7.00;2.83;;;;;;;;;;5063206;28;20571;-52
2023/09/22 04:10:13;;;;;;;9.77;3.20;;;;;;;;;;5054751;28;20040;-50
2023/09/22 04:12:41;;;;;;;7.30;2.90;;;;;;;;;;5059961;28;20813;-51
2023/09/22 04:15:09;;;;;;;7.18;3.00;;;;;;;;;;5061843;28;20139;-49
2023/09/22 04:17:38;;;;;;;10.68;3.20;;;;;;;;;;5059812;28;20039;-52
2023/09/22 04:20:07;;;;;;;8.60;3.10;;;;;;;;;;5071183;28;20411;-51
2023/09/22 04:22:35;;;;;;;8.50;3.00;;;;;;;;;;5060833;28;20040;-50
2023/09/22 04:25:10;;;;;;;7.63;3.23;;;;;;;;;;5071234;28;20416;-49
2023/09/22 04:27:44;;;;;;;8.20;3.15;;;;;;;;;;5060633;28;20075;-49
2023/09/22 04:30:13;;;;;;;9.75;3.05;;;;;;;;;;5063246;28;20040;-49
2023/09/22 04:32:41;;;;;;;6.90;2.90;;;;;;;;;;5055098;28;20040;-50
2023/09/22 04:35:09;;;;;;;7.75;2.95;;;;;;;;;;5067418;28;20066;-51
2023/09/22 04:37:40;;;;;;;8.87;2.40;;;;;;;;;;5065176;28;20047;-50
2023/09/22 04:40:10;;;;;;;9.55;2.60;;;;;;;;;;5056844;28;20466;-50
2023/09/22 04:42:38;;;;;;;6.78;2.50;;;;;;;;;;5062094;28;20043;-50
2023/09/22 04:45:09;;;;;;;6.38;2.50;;;;;;;;;;5049062;28;20478;-49
2023/09/22 04:47:37;;;;;;;6.22;2.22;;;;;;;;;;5066196;28;20097;-50
2023/09/22 04:50:06;;;;;;;8.37;2.50;;;;;;;;;;5039339;28;20491;-50
2023/09/22 04:52:34;;;;;;;8.68;2.17;;;;;;;;;;5066338;28;20604;-50
2023/09/22 04:55:02;;;;;;;7.63;2.45;;;;;;;;;;5041554;28;20043;-51
2023/09/22 04:57:30;;;;;;;7.40;2.50;;;;;;;;;;5064009;28;20067;-49
2023/09/22 04:59:57;;;;;;;7.85;2.60;;;;;;;;;;5049068;28;23320;-50
2023/09/22 05:02:26;;;;;;;8.53;2.60;;;;;;;;;;5062473;28;20036;-48
2023/09/22 05:04:55;;;;;;;8.43;2.33;;;;;;;;;;5052879;28;20089;-51
2023/09/22 05:07:44;;;;;;;7.30;2.00;;;;;;;;;;5059898;28;20555;-53
2023/09/22 05:10:13;;;;;;;7.15;2.50;;;;;;;;;;5052434;28;20510;-52
2023/09/22 05:12:41;;;;;;;13.05;2.80;;;;;;;;;;5064204;28;20044;-49
2023/09/22 05:15:09;;;;;;;5.53;2.07;;;;;;;;;;5057537;28;20032;-51
2023/09/22 05:17:41;;;;;;;8.70;2.40;;;;;;;;;;5061829;28;20044;-49
2023/09/22 05:20:14;;;;;;;6.70;2.20;;;;;;;;;;5051384;28;20105;-48
2023/09/22 05:22:44;;;;;;;6.78;2.22;;;;;;;;;;5060187;28;20326;-48
2023/09/22 05:25:14;;;;;;;6.85;2.38;;;;;;;;;;5058724;28;20040;-48
2023/09/22 05:27:44;;;;;;;6.37;2.20;;;;;;;;;;5056522;28;20052;-50
2023/09/22 05:30:13;;;;;;;11.68;3.40;;;;;;;;;;5057631;28;20040;-49
2023/09/22 05:32:43;;;;;;;9.10;2.30;;;;;;;;;;5049184;28;20699;-52
2023/09/22 05:35:11;;;;;;;7.53;2.25;;;;;;;;;;5055479;28;20051;-49
2023/09/22 05:37:39;;;;;;;8.63;2.38;;;;;;;;;;5054855;28;20056;-54
2023/09/22 05:40:12;;;;;;;6.83;2.17;;;;;;;;;;5052302;28;20481;-49
2023/09/22 05:42:42;;;;;;;6.03;2.20;;;;;;;;;;4694387;28;9999840;-48
2023/09/22 05:45:11;;;;;;;6.13;2.20;;;;;;;;;;5051104;28;20105;-49
2023/09/22 05:47:39;;;;;;;6.45;1.80;;;;;;;;;;5056235;28;20055;-50
2023/09/22 05:50:10;;;;;;;5.95;1.85;;;;;;;;;;5057470;28;20044;-49
2023/09/22 05:52:39;;;;;;;6.45;2.10;;;;;;;;;;5046413;28;20048;-50
2023/09/22 05:55:12;;;;;;;8.48;2.35;;;;;;;;;;5058082;28;20071;-48
2023/09/22 05:57:40;;;;;;;7.27;2.20;;;;;;;;;;5042221;28;20043;-53
2023/09/22 06:00:15;;;;;;;8.40;2.03;;;;;;;;;;5062178;28;21199;-48
2023/09/22 06:02:46;;;;;;;7.13;2.00;;;;;;;;;;5056301;28;20059;-52
2023/09/22 06:05:16;;;;;;;7.85;2.47;;;;;;;;;;5054644;28;20098;-48
2023/09/22 06:07:44;;;;;;;10.60;2.10;;;;;;;;;;5054129;28;20398;-51
2023/09/22 06:10:12;;;;;;;6.60;2.13;;;;;;;;;;5054325;28;20434;-51
2023/09/22 06:12:40;;;;;;;7.40;2.20;;;;;;;;;;5056628;28;20532;-47
2023/09/22 06:15:10;;;;;;;6.38;2.00;;;;;;;;;;5052172;28;20142;-51
2023/09/22 06:17:37;;;;;;;6.82;2.20;;;;;;;;;;5055944;28;20051;-49
2023/09/22 06:20:13;;;;;;;6.30;2.00;;;;;;;;;;5060776;28;20164;-48
2023/09/22 06:22:44;;;;;;;8.93;2.00;;;;;;;;;;5060841;28;20498;-53
2023/09/22 06:25:13;;;;;;;6.57;2.00;;;;;;;;;;5048084;28;20127;-51
2023/09/22 06:27:43;;;;;;;6.75;1.50;;;;;;;;;;5053547;28;20046;-48
2023/09/22 06:30:12;;;;;;;6.55;1.90;;;;;;;;;;5053604;28;20037;-50
2023/09/22 06:32:41;;;;;;;7.18;1.80;;;;;;;;;;5058382;28;20517;-50
2023/09/22 06:35:10;;;;;;;5.70;1.57;;;;;;;;;;5054403;28;20527;-48
2023/09/22 06:37:41;;;;;;;6.15;1.17;;;;;;;;;;5058694;28;20073;-50
2023/09/22 06:40:12;;;;;;;8.75;1.70;;;;;;;;;;5050841;28;20036;-51
2023/09/22 06:42:45;;;;;;;7.53;1.83;;;;;;;;;;5050221;28;20036;-54
2023/09/22 06:45:14;;;;;;;7.93;2.13;;;;;;;;;;5052415;28;20047;-53
2023/09/22 06:47:42;;;;;;;5.93;2.10;;;;;;;;;;5056740;28;20148;-52
2023/09/22 06:50:11;;;;;;;6.03;1.80;;;;;;;;;;5050266;28;20093;-49
2023/09/22 06:52:40;;;;;;;6.35;2.08;;;;;;;;;;5050534;28;20044;-49
2023/09/22 06:55:09;;;;;;;9.80;2.60;;;;;;;;;;5058456;28;20050;-49
2023/09/22 06:57:40;;;;;;;6.40;1.95;;;;;;;;;;5065617;28;20390;-48
2023/09/22 07:00:15;;;;;;;7.57;2.27;;;;;;;;;;5050094;28;20574;-52
2023/09/22 07:02:46;;;;;;;6.03;2.13;;;;;;;;;;5034167;28;20047;-50
2023/09/22 07:05:19;;;;;;;9.85;2.70;;;;;;;;;;5057886;28;20468;-50
2023/09/22 07:07:49;;;;;;;8.85;1.60;;;;;;;;;;5055409;28;20054;-48
2023/09/22 07:10:18;;;;;;;5.88;2.08;;;;;;;;;;5058324;28;20040;-53
2023/09/22 07:12:47;;;;;;;7.53;1.93;;;;;;;;;;5061230;28;20028;-51
2023/09/22 07:15:22;;;;;;;9.80;1.50;;;;;;;;;;5065589;28;20061;-54
2023/09/22 07:17:49;;;;;;;6.20;1.60;;;;;;;;;;5040537;28;20374;-49
2023/09/22 07:20:17;;;;;;;5.65;1.80;;;;;;;;;;5061445;28;20043;-54
2023/09/22 07:22:47;;;;;;;6.00;1.60;;;;;;;;;;5053090;28;20036;-51
2023/09/22 07:25:15;;;;;;;7.97;1.90;;;;;;;;;;5065731;28;20036;-53
2023/09/22 07:27:44;;;;;;;6.30;1.80;;;;;;;;;;5054299;28;20867;-56
2023/09/22 07:30:14;;;;;;;5.47;1.30;;;;;;;;;;5059564;28;20067;-52
2023/09/22 07:32:43;;;;;;;4.65;1.45;;;;;;;;;;5054181;28;20040;-49
2023/09/22 07:35:10;;;;;;;6.05;1.90;;;;;;;;;;5065573;28;20032;-51
2023/09/22 07:37:38;;;;;;;4.83;1.60;;;;;;;;;;5051172;28;20047;-50
2023/09/22 07:40:08;;;;;;;8.10;1.92;;;;;;;;;;5058227;28;20417;-52
2023/09/22 07:42:38;;;;;;;4.68;1.20;;;;;;;;;;5052724;28;20120;-51
2023/09/22 07:45:07;;;;;;;5.40;1.50;;;;;;;;;;5054745;28;20058;-53
2023/09/22 07:47:40;;;;;;;5.47;1.35;;;;;;;;;;5050072;28;20051;-54
2023/09/22 07:50:08;;;;;;;5.60;1.30;;;;;;;;;;5048418;28;20047;-53
2023/09/22 07:52:36;;;;;;;9.60;1.63;;;;;;;;;;5061433;28;20052;-52
2023/09/22 07:55:05;;;;;;;5.28;1.50;;;;;;;;;;5029290;28;20704;-54
2023/09/22 07:57:33;;;;;;;6.80;1.30;;;;;;;;;;5057132;28;20043;-52
2023/09/22 08:00:03;;;;;;;6.18;1.25;;;;;;;;;;5058054;28;20515;-55
2023/09/22 08:02:31;;;;;;;4.87;1.13;;;;;;;;;;5057269;28;20040;-51
2023/09/22 08:05:00;;;;;;;5.40;1.10;;;;;;;;;;5037816;28;20051;-55
2023/09/22 08:07:28;;;;;;;6.82;1.55;;;;;;;;;;5051434;28;20050;-54
2023/09/22 08:09:56;;;;;;;5.03;1.75;;;;;;;;;;5044114;28;20044;-50
2023/09/22 08:12:24;;;;;;;6.73;1.67;;;;;;;;;;4707780;28;10000331;-51
2023/09/22 08:14:52;;;;;;;12.38;1.55;;;;;;;;;;5044124;28;20205;-56
2023/09/22 08:17:24;;;;;;;4.43;1.35;;;;;;;;;;5058717;28;20098;-54
2023/09/22 08:19:53;;;;;;;7.03;1.67;;;;;;;;;;5048161;28;20060;-55
2023/09/22 08:22:25;;;;;;;6.57;1.10;;;;;;;;;;5058566;28;20058;-51
2023/09/22 08:24:53;;;;;;;5.20;1.23;;;;;;;;;;5070327;27;20040;-53
2023/09/22 08:27:22;;;;;;;6.85;1.10;;;;;;;;;;5063081;28;20044;-50
2023/09/22 08:29:51;;;;;;;3.83;0.95;;;;;;;;;;5048770;28;20058;-53
2023/09/22 08:32:19;;;;;;;5.57;0.87;;;;;;;;;;4657965;28;9999682;-50
2023/09/22 08:34:47;;;;;;;4.88;0.98;;;;;;;;;;5033781;28;20597;-55
2023/09/22 08:37:15;;;;;;;5.00;0.82;;;;;;;;;;5032401;28;20036;-55
2023/09/22 08:39:44;;;;;;;5.37;0.73;;;;;;;;;;5037479;28;20028;-54
2023/09/22 08:42:13;;;;;;;6.95;1.20;;;;;;;;;;5029379;28;20032;-56
2023/09/22 08:44:41;;;;;;;6.43;1.30;;;;;;;;;;5035733;28;20040;-55
2023/09/22 08:47:09;;;;;;;5.03;1.13;;;;;;;;;;5042822;28;20474;-54
2023/09/22 08:49:37;;;;;;;4.97;1.08;;;;;;;;;;5040389;28;20814;-52
2023/09/22 08:52:06;;;;;;;5.33;1.23;;;;;;;;;;5032311;28;21041;-54
2023/09/22 08:54:34;;;;;;;5.00;0.88;;;;;;;;;;5047205;28;20040;-53
2023/09/22 08:57:04;;;;;;;5.38;0.70;;;;;;;;;;5035280;28;20036;-53
2023/09/22 08:59:31;;;;;;;4.32;0.77;;;;;;;;;;5040458;28;20043;-55
2023/09/22 09:02:01;;;;;;;7.25;0.95;;;;;;;;;;5027641;28;20804;-55
2023/09/22 09:04:31;;;;;;;4.73;0.80;;;;;;;;;;5034853;28;20032;-55
2023/09/22 09:06:58;;;;;;;7.22;1.10;;;;;;;;;;5033630;28;21405;-55
2023/09/22 09:09:26;;;;;;;4.80;0.70;;;;;;;;;;5039743;28;20649;-54
2023/09/22 09:12:01;;;;;;;5.43;0.73;;;;;;;;;;5028745;28;20390;-54
2023/09/22 09:14:31;;;;;;;4.70;0.60;;;;;;;;;;5036861;28;20051;-57
2023/09/22 09:16:59;;;;;;;5.63;0.90;;;;;;;;;;5045101;28;20054;-55
2023/09/22 09:19:27;;;;;;;5.60;0.98;;;;;;;;;;5032669;28;21608;-54
2023/09/22 09:22:06;;;;;;;6.78;1.05;;;;;;;;;;5039560;28;20043;-56
2023/09/22 09:24:38;;;;;;;5.13;0.73;;;;;;;;;;5028628;28;20056;-54
2023/09/22 09:27:17;;;;;;;8.75;1.13;;;;;;;;;;5045702;28;20044;-55
2023/09/22 09:29:47;;;;;;;6.33;0.60;;;;;;;;;;5018399;28;21221;-56
2023/09/22 09:32:25;;;;;;;6.15;0.80;;;;;;;;;;5021895;28;20063;-55
2023/09/22 09:34:58;;;;;;;5.72;0.82;;;;;;;;;;5041286;28;20048;-56
2023/09/22 09:37:26;;;;;;;5.32;1.00;;;;;;;;;;5036545;28;20067;-56
2023/09/22 09:39:56;;;;;;;10.10;0.80;;;;;;;;;;5037857;28;20036;-57
2023/09/22 09:42:26;;;;;;;5.60;0.93;;;;;;;;;;5023054;28;20803;-57
2023/09/22 09:44:57;;;;;;;6.20;1.05;;;;;;;;;;5034274;28;20075;-56
2023/09/22 09:47:26;;;;;;;5.28;0.80;;;;;;;;;;5047927;28;20042;-61
2023/09/22 09:49:59;;;;;;;5.60;1.58;;;;;;;;;;5031614;28;20048;-57
2023/09/22 09:52:30;;;;;;;5.18;1.48;;;;;;;;;;5024941;28;20574;-56
2023/09/22 09:55:07;;;;;;;5.80;1.17;;;;;;;;;;5050443;28;20138;-54
2023/09/22 09:57:35;;;;;;;6.50;1.40;;;;;;;;;;5056091;28;20039;-56
2023/09/22 10:00:12;;;;;;;6.20;1.10;;;;;;;;;;5061925;28;20434;-55
2023/09/22 10:02:44;;;;;;;4.88;0.68;;;;;;;;;;5049677;28;20046;-54
2023/09/22 10:05:14;;;;;;;5.53;0.80;;;;;;;;;;5057523;28;20287;-56
2023/09/22 10:07:46;;;;;;;3.60;0.80;;;;;;;;;;5031362;28;20072;-57
2023/09/22 10:10:16;;;;;;;6.00;0.98;;;;;;;;;;5049809;28;20044;-56
2023/09/22 10:12:44;;;;;;;5.50;1.10;;;;;;;;;;5061934;28;20119;-55
2023/09/22 10:15:14;;;;;;;6.93;0.70;;;;;;;;;;5060981;28;20141;-55
2023/09/22 10:17:42;;;;;;;7.80;1.02;;;;;;;;;;5048541;28;20044;-55
2023/09/22 10:20:11;;;;;;;7.10;0.87;;;;;;;;;;5063939;28;20118;-55
2023/09/22 10:22:39;;;;;;;7.00;0.80;;;;;;;;;;5050083;28;20433;-56
2023/09/22 10:25:23;;;;;;;4.57;0.70;;;;;;;;;;5058414;28;20051;-56
2023/09/22 10:28:04;;;;;;;6.47;0.85;;;;;;;;;;5059460;28;20383;-56
2023/09/22 10:31:03;;;;;;;6.00;0.90;;;;;;;;;;5041454;28;20044;-57
2023/09/22 10:33:32;;;;;;;3.73;0.70;;;;;;;;;;4361227;27;10000318;-56
2023/09/22 10:36:01;;;;;;;5.25;0.80;;;;;;;;;;5042891;28;20059;-48
2023/09/22 10:38:29;;;;;;;7.35;0.73;;;;;;;;;;5061810;28;20036;-53
2023/09/22 10:41:06;;;;;;;4.73;0.80;;;;;;;;;;5062083;28;20036;-54
2023/09/22 10:43:34;;;;;;;5.03;0.68;;;;;;;;;;5057494;28;20036;-55
2023/09/22 10:46:03;;;;;;;4.95;0.90;;;;;;;;;;5067568;28;20036;-56
2023/09/22 10:48:31;;;;;;;4.93;0.75;;;;;;;;;;5056468;28;20102;-57
2023/09/22 10:50:59;;;;;;;2.70;0.38;;;;;;;;;;5065591;28;20071;-56
2023/09/22 10:53:27;;;;;;;5.40;0.60;;;;;;;;;;5053424;28;21021;-56
2023/09/22 10:55:57;;;;;;;5.30;0.70;;;;;;;;;;5063640;28;20594;-56
2023/09/22 10:58:26;;;;;;;5.93;0.60;;;;;;;;;;5059848;28;20586;-55
2023/09/22 11:00:58;;;;;;;4.22;0.80;;;;;;;;;;5063344;28;20517;-56
2023/09/22 11:03:27;;;;;;;3.75;0.70;;;;;;;;;;5048704;28;20032;-55
2023/09/22 11:05:59;;;;;;;4.30;0.70;;;;;;;;;;5054706;28;20036;-56
2023/09/22 11:08:27;;;;;;;5.00;0.70;;;;;;;;;;5042753;28;20556;-56
2023/09/22 11:10:56;;;;;;;6.75;0.70;;;;;;;;;;5059071;28;20123;-55
2023/09/22 11:13:24;;;;;;;5.13;0.80;;;;;;;;;;5049197;28;20040;-55
2023/09/22 11:15:56;;;;;;;9.48;1.08;;;;;;;;;;5070741;28;20118;-55
2023/09/22 11:18:25;;;;;;;5.07;0.73;;;;;;;;;;5060575;28;20036;-55
2023/09/22 11:20:59;;;;;;;6.63;1.20;;;;;;;;;;5060818;28;20493;-54
2023/09/22 11:23:27;;;;;;;6.45;0.80;;;;;;;;;;5062693;28;20062;-55
2023/09/22 11:25:56;;;;;;;7.03;0.90;;;;;;;;;;5060795;28;20052;-55
2023/09/22 11:28:23;;;;;;;6.60;0.68;;;;;;;;;;5088680;27;20048;-53
2023/09/22 11:30:54;;;;;;;4.80;0.77;;;;;;;;;;5052504;28;20396;-56
2023/09/22 11:33:23;;;;;;;5.88;0.77;;;;;;;;;;5087008;27;20036;-53
2023/09/22 11:35:52;;;;;;;4.10;0.60;;;;;;;;;;5050719;28;20139;-57
2023/09/22 11:38:27;;;;;;;4.53;0.80;;;;;;;;;;5063530;28;20048;-55
2023/09/22 11:41:03;;;;;;;4.93;0.57;;;;;;;;;;5057117;28;20036;-54
2023/09/22 11:43:32;;;;;;;6.70;1.27;;;;;;;;;;5047288;28;20157;-55
2023/09/22 11:46:07;;;;;;;3.80;0.50;;;;;;;;;;5060881;28;20044;-51
2023/09/22 11:48:50;;;;;;;5.20;0.47;;;;;;;;;;5044216;28;20495;-54
2023/09/22 11:51:18;;;;;;;4.95;0.60;;;;;;;;;;5066607;28;20052;-56
2023/09/22 11:53:47;;;;;;;5.40;0.80;;;;;;;;;;5055695;28;20051;-55
2023/09/22 11:56:15;;;;;;;2.63;0.60;;;;;;;;;;5060784;28;20078;-50
2023/09/22 11:58:44;;;;;;;3.28;0.70;;;;;;;;;;5053798;28;20105;-53
2023/09/22 12:01:12;;;;;;;5.57;0.60;;;;;;;;;;5048956;28;20147;-48
2023/09/22 12:03:41;;;;;;;4.25;0.63;;;;;;;;;;5039050;28;20513;-51
2023/09/22 12:06:13;;;;;;;4.18;0.65;;;;;;;;;;5050820;28;20039;-53
2023/09/22 12:08:40;;;;;;;5.70;0.97;;;;;;;;;;5039076;28;20399;-50
2023/09/22 12:11:09;;;;;;;3.95;0.60;;;;;;;;;;5059391;28;20149;-54
2023/09/22 12:13:38;;;;;;;4.72;0.93;;;;;;;;;;5055730;28;20065;-54
2023/09/22 12:16:07;;;;;;;5.47;0.65;;;;;;;;;;5062979;28;20117;-54
2023/09/22 12:18:35;;;;;;;5.55;0.70;;;;;;;;;;5041712;28;20060;-56
2023/09/22 12:21:03;;;;;;;5.87;0.90;;;;;;;;;;5053467;28;20353;-53
2023/09/22 12:23:31;;;;;;;4.13;0.80;;;;;;;;;;5063311;28;20046;-54
2023/09/22 12:25:59;;;;;;;5.22;0.77;;;;;;;;;;5039535;28;20044;-50
2023/09/22 12:28:28;;;;;;;4.38;0.52;;;;;;;;;;5059419;28;20046;-54
2023/09/22 12:30:56;;;;;;;6.28;0.68;;;;;;;;;;5049049;28;20562;-53
2023/09/22 12:33:23;;;;;;;3.63;0.60;;;;;;;;;;5054260;28;20036;-51
2023/09/22 12:35:52;;;;;;;2.88;0.50;;;;;;;;;;4702143;28;9999740;-53
2023/09/22 12:38:20;;;;;;;4.47;0.60;;;;;;;;;;5082228;27;20587;-51
2023/09/22 12:40:48;;;;;;;3.25;0.47;;;;;;;;;;5049628;28;20039;-49
2023/09/22 12:43:15;;;;;;;5.22;0.60;;;;;;;;;;5063172;28;20036;-52
2023/09/22 12:45:45;;;;;;;2.05;0.30;;;;;;;;;;5052614;28;21568;-54
2023/09/22 12:48:13;;;;;;;3.57;0.53;;;;;;;;;;5059146;28;20557;-53
2023/09/22 12:50:41;;;;;;;7.57;0.60;;;;;;;;;;5054673;28;20040;-55
2023/09/22 12:53:09;;;;;;;5.25;0.60;;;;;;;;;;5059043;28;21585;-54
2023/09/22 12:55:37;;;;;;;4.05;0.50;;;;;;;;;;5049469;28;20043;-52
2023/09/22 12:58:06;;;;;;;4.05;0.50;;;;;;;;;;5050539;28;20046;-52
2023/09/22 13:00:39;;;;;;;4.23;0.53;;;;;;;;;;5061006;28;20081;-52
2023/09/22 13:03:08;;;;;;;5.65;0.70;;;;;;;;;;5056755;28;20048;-55
2023/09/22 13:05:37;;;;;;;4.80;0.57;;;;;;;;;;5065031;28;20039;-53
2023/09/22 13:08:08;;;;;;;4.57;0.60;;;;;;;;;;5060061;28;20048;-52
2023/09/22 13:10:39;;;;;;;5.22;0.50;;;;;;;;;;5054343;28;20047;-51
2023/09/22 13:13:07;;;;;;;2.53;0.40;;;;;;;;;;5050227;28;20040;-51
2023/09/22 13:15:35;;;;;;;3.47;0.60;;;;;;;;;;5068496;28;20036;-52
2023/09/22 13:18:03;;;;;;;3.55;0.52;;;;;;;;;;5064691;27;20379;-50
2023/09/22 13:20:34;;;;;;;4.80;0.82;;;;;;;;;;4712464;28;9999673;-53
2023/09/22 13:23:02;;;;;;;4.53;0.80;;;;;;;;;;5044391;28;20166;-48
2023/09/22 13:25:30;;;;;;;5.10;0.70;;;;;;;;;;5052650;28;20040;-49
2023/09/22 13:27:59;;;;;;;6.20;0.70;;;;;;;;;;5022214;28;20120;-50
2023/09/22 13:30:27;;;;;;;5.03;0.80;;;;;;;;;;5053598;28;20107;-53
2023/09/22 13:32:55;;;;;;;4.32;0.68;;;;;;;;;;5051819;28;20428;-50
2023/09/22 13:35:22;;;;;;;5.90;1.00;;;;;;;;;;5054838;28;20127;-50
2023/09/22 13:37:52;;;;;;;6.55;0.93;;;;;;;;;;5049891;28;20640;-53
2023/09/22 13:40:22;;;;;;;5.80;0.90;;;;;;;;;;5054373;28;20133;-52
2023/09/22 13:42:50;;;;;;;5.43;0.80;;;;;;;;;;5040065;28;20726;-50
2023/09/22 13:45:18;;;;;;;6.13;0.75;;;;;;;;;;5050247;28;20040;-53
2023/09/22 13:48:04;;;;;;;4.67;0.80;;;;;;;;;;5056753;28;20066;-54
2023/09/22 13:50:35;;;;;;;5.63;0.90;;;;;;;;;;5066776;28;20316;-53
2023/09/22 13:53:06;;;;;;;4.93;0.90;;;;;;;;;;5052358;28;21572;-54
2023/09/22 13:55:35;;;;;;;5.53;1.20;;;;;;;;;;5067999;28;20032;-49
2023/09/22 13:58:04;;;;;;;6.85;0.85;;;;;;;;;;5046543;28;20459;-51
2023/09/22 14:00:31;;;;;;;7.70;0.80;;;;;;;;;;5045907;28;20090;-53
2023/09/22 14:03:00;;;;;;;5.65;1.00;;;;;;;;;;5026141;28;20040;-51
2023/09/22 14:05:30;;;;;;;4.85;0.60;;;;;;;;;;5034484;28;20270;-51
2023/09/22 14:07:58;;;;;;;4.63;0.60;;;;;;;;;;5022250;28;20717;-48
2023/09/22 14:10:28;;;;;;;3.83;0.60;;;;;;;;;;5042538;28;20044;-49
2023/09/22 14:12:56;;;;;;;4.63;0.50;;;;;;;;;;5013240;28;20452;-55
2023/09/22 14:15:23;;;;;;;3.95;0.60;;;;;;;;;;5041947;28;20036;-52
2023/09/22 14:17:52;;;;;;;5.50;0.90;;;;;;;;;;5030057;28;20051;-54
2023/09/22 14:20:21;;;;;;;4.60;1.10;;;;;;;;;;5035041;28;20750;-52
2023/09/22 14:22:49;;;;;;;4.22;0.40;;;;;;;;;;5021041;28;20566;-51
2023/09/22 14:25:18;;;;;;;3.53;0.37;;;;;;;;;;5044434;28;20475;-48
2023/09/22 14:27:48;;;;;;;3.25;0.50;;;;;;;;;;5038502;28;20040;-51
2023/09/22 14:30:17;;;;;;;5.55;0.40;;;;;;;;;;5023929;28;20067;-51
2023/09/22 14:32:45;;;;;;;5.53;1.38;;;;;;;;;;5030729;28;20490;-53
2023/09/22 14:35:12;;;;;;;4.22;0.60;;;;;;;;;;5026243;28;20054;-51
2023/09/22 14:37:40;;;;;;;5.33;0.70;;;;;;;;;;5038621;28;20044;-51
2023/09/22 14:40:10;;;;;;;5.40;0.65;;;;;;;;;;5034202;28;20210;-53
2023/09/22 14:42:37;;;;;;;5.70;0.70;;;;;;;;;;5022877;28;20047;-51
2023/09/22 14:45:07;;;;;;;4.25;0.50;;;;;;;;;;5013741;28;20445;-49
2023/09/22 14:47:36;;;;;;;3.30;0.40;;;;;;;;;;5049302;28;20044;-52
2023/09/22 14:50:05;;;;;;;3.90;0.73;;;;;;;;;;5029001;28;20040;-53
2023/09/22 14:52:32;;;;;;;3.60;0.40;;;;;;;;;;5022639;28;20075;-50
2023/09/22 14:55:00;;;;;;;2.25;0.28;;;;;;;;;;5022861;28;20119;-52